createdAt,value
2022-12-15T00:00:02.870Z,92.47
2022-12-15T00:01:24.480Z,95.89
2022-12-15T00:02:43.332Z,94.20
2022-12-15T00:04:02.252Z,93.64
2022-12-15T00:05:21.794Z,94.02
2022-12-15T00:06:41.171Z,93.04
2022-12-15T00:07:59.431Z,93.95
2022-12-15T00:09:20.623Z,89.65
2022-12-15T00:10:39.081Z,92.08
2022-12-15T00:12:00.803Z,89.84
2022-12-15T00:13:25.013Z,86.53
2022-12-15T00:14:43.276Z,86.58
2022-12-15T00:16:02.952Z,86.90
2022-12-15T00:17:22.168Z,87.06
2022-12-15T00:18:40.468Z,89.50
2022-12-15T00:19:58.731Z,95.63
2022-12-15T00:21:17.132Z,95.43
2022-12-15T00:22:36.399Z,96.76
2022-12-15T00:23:54.717Z,94.25
2022-12-15T00:25:13.019Z,91.93
2022-12-15T00:26:31.233Z,93.45
2022-12-15T00:27:53.109Z,97.81
2022-12-15T00:29:11.458Z,98.57
2022-12-15T00:30:29.896Z,93.08
2022-12-15T00:31:48.442Z,92.27
2022-12-15T00:33:08.053Z,96.20
2022-12-15T00:34:26.891Z,91.98
2022-12-15T00:35:45.186Z,98.94
2022-12-15T00:37:03.489Z,99.38
2022-12-15T00:38:24.311Z,98.72
2022-12-15T00:39:30.211Z,101.03
2022-12-15T00:40:33.561Z,100.69
2022-12-15T00:41:39.601Z,101.86
2022-12-15T00:42:45.507Z,100.80
2022-12-15T00:43:56.360Z,100.75
2022-12-15T00:45:00.118Z,96.75
2022-12-15T00:46:19.251Z,104.13
2022-12-15T00:47:25.453Z,103.01
2022-12-15T00:48:28.799Z,99.78
2022-12-15T00:50:04.798Z,97.80
2022-12-15T00:51:08.648Z,95.25
2022-12-15T00:52:28.365Z,98.85
2022-12-15T00:53:46.685Z,99.99
2022-12-15T00:55:05.800Z,97.92
2022-12-15T00:56:25.296Z,95.59
2022-12-15T00:57:43.674Z,91.54
2022-12-15T00:59:04.658Z,88.62
2022-12-15T01:00:26.525Z,88.33
2022-12-15T01:01:45.000Z,89.68
2022-12-15T01:03:08.251Z,92.99
2022-12-15T01:04:26.651Z,92.62
2022-12-15T01:05:45.813Z,92.76
2022-12-15T01:07:07.170Z,95.96
2022-12-15T01:08:25.445Z,89.83
2022-12-15T01:09:43.688Z,94.36
2022-12-15T01:11:02.838Z,94.14
2022-12-15T01:12:21.332Z,92.33
2022-12-15T01:13:39.579Z,94.82
2022-12-15T01:15:00.381Z,95.46
2022-12-15T01:16:27.209Z,91.10
2022-12-15T01:17:45.576Z,88.74
2022-12-15T01:19:03.896Z,89.07
2022-12-15T01:20:20.577Z,89.67
2022-12-15T01:21:25.523Z,90.27
2022-12-15T01:22:31.632Z,90.42
2022-12-15T01:23:36.378Z,89.44
2022-12-15T01:24:42.307Z,91.46
2022-12-15T01:25:45.490Z,94.12
2022-12-15T01:26:56.621Z,91.90
2022-12-15T01:28:02.792Z,99.80
2022-12-15T01:29:06.047Z,98.75
2022-12-15T01:30:19.051Z,94.41
2022-12-15T01:31:22.660Z,100.54
2022-12-15T01:32:29.650Z,102.85
2022-12-15T01:33:34.894Z,100.08
2022-12-15T01:34:40.887Z,102.80
2022-12-15T01:35:44.894Z,105.69
2022-12-15T01:36:50.874Z,102.90
2022-12-15T01:37:55.070Z,98.47
2022-12-15T01:39:01.077Z,95.55
2022-12-15T01:40:22.335Z,95.83
2022-12-15T01:41:26.144Z,92.58
2022-12-15T01:42:32.326Z,94.04
2022-12-15T01:43:40.791Z,92.01
2022-12-15T01:44:52.320Z,94.11
2022-12-15T01:46:07.746Z,97.18
2022-12-15T01:47:15.233Z,95.93
2022-12-15T01:48:32.740Z,94.99
2022-12-15T01:49:36.924Z,97.13
2022-12-15T01:50:50.023Z,97.77
2022-12-15T01:52:03.471Z,95.66
2022-12-15T01:53:07.050Z,92.55
2022-12-15T01:54:23.969Z,91.05
2022-12-15T01:55:32.565Z,89.25
2022-12-15T01:56:46.307Z,88.91
2022-12-15T01:57:55.780Z,82.10
2022-12-15T01:59:07.786Z,88.78
2022-12-15T02:00:13.266Z,87.82
2022-12-15T02:01:22.786Z,84.45
2022-12-15T02:02:34.518Z,84.35
2022-12-15T02:03:47.990Z,87.08
2022-12-15T02:04:58.798Z,82.74
2022-12-15T02:06:06.531Z,84.37
2022-12-15T02:07:14.701Z,85.99
2022-12-15T02:08:20.951Z,84.00
2022-12-15T02:09:28.267Z,86.62
2022-12-15T02:11:00.873Z,83.75
2022-12-15T02:12:28.896Z,84.12
2022-12-15T02:13:51.736Z,83.19
2022-12-15T02:15:20.546Z,82.14
2022-12-15T02:16:47.517Z,80.89
2022-12-15T02:18:11.663Z,81.84
2022-12-15T02:20:14.951Z,79.26
2022-12-15T02:21:29.713Z,76.31
2022-12-15T02:23:10.175Z,75.01
2022-12-15T02:25:00.950Z,79.58
2022-12-15T02:27:16.117Z,76.09
2022-12-15T02:28:44.863Z,76.44
2022-12-15T02:30:46.539Z,76.00
2022-12-15T02:32:02.349Z,73.80
2022-12-15T02:33:22.564Z,75.85
2022-12-15T02:34:43.290Z,72.04
2022-12-15T02:36:01.203Z,75.79
2022-12-15T02:37:16.704Z,76.94
2022-12-15T02:38:33.927Z,74.13
2022-12-15T02:39:37.318Z,77.10
2022-12-15T02:40:43.408Z,74.94
2022-12-15T02:41:49.318Z,74.14
2022-12-15T02:43:03.515Z,74.41
2022-12-15T02:44:16.092Z,76.16
2022-12-15T02:45:35.026Z,79.53
2022-12-15T02:47:11.244Z,82.44
2022-12-15T02:48:34.764Z,83.39
2022-12-15T02:49:59.300Z,84.22
2022-12-15T02:51:35.647Z,85.11
2022-12-15T02:52:59.432Z,84.82
2022-12-15T02:54:45.719Z,84.86
2022-12-15T02:56:05.991Z,81.83
2022-12-15T02:57:26.952Z,82.04
2022-12-15T02:58:46.608Z,81.96
2022-12-15T03:00:03.642Z,82.22
2022-12-15T03:01:15.366Z,82.62
2022-12-15T03:02:25.955Z,82.02
2022-12-15T03:03:35.635Z,86.08
2022-12-15T03:04:45.881Z,87.40
2022-12-15T03:05:54.959Z,88.72
2022-12-15T03:07:05.339Z,91.54
2022-12-15T03:08:09.485Z,86.19
2022-12-15T03:09:15.336Z,85.92
2022-12-15T03:10:20.617Z,86.59
2022-12-15T03:11:32.607Z,86.87
2022-12-15T03:12:35.853Z,90.45
2022-12-15T03:13:42.212Z,87.30
2022-12-15T03:14:45.813Z,80.56
2022-12-15T03:15:52.670Z,83.52
2022-12-15T03:16:57.177Z,86.41
2022-12-15T03:18:05.895Z,85.95
2022-12-15T03:19:09.178Z,86.35
2022-12-15T03:20:16.123Z,86.49
2022-12-15T03:21:19.512Z,86.72
2022-12-15T03:22:26.364Z,85.53
2022-12-15T03:23:30.195Z,81.88
2022-12-15T03:24:36.592Z,82.74
2022-12-15T03:25:39.837Z,82.78
2022-12-15T03:26:50.191Z,81.58
2022-12-15T03:27:54.656Z,81.49
2022-12-15T03:29:00.626Z,81.40
2022-12-15T03:30:06.797Z,83.33
2022-12-15T03:31:12.908Z,82.70
2022-12-15T03:32:19.088Z,81.74
2022-12-15T03:33:25.973Z,79.78
2022-12-15T03:34:32.009Z,81.51
2022-12-15T03:35:35.314Z,79.52
2022-12-15T03:36:41.358Z,81.98
2022-12-15T03:37:44.865Z,85.46
2022-12-15T03:38:51.685Z,85.99
2022-12-15T03:39:55.017Z,86.21
2022-12-15T03:41:01.105Z,89.89
2022-12-15T03:42:04.844Z,92.19
2022-12-15T03:43:10.737Z,93.43
2022-12-15T03:44:14.955Z,93.26
2022-12-15T03:45:23.497Z,99.68
2022-12-15T03:46:27.246Z,108.26
2022-12-15T03:47:33.392Z,106.79
2022-12-15T03:48:39.319Z,94.56
2022-12-15T03:49:46.063Z,92.41
2022-12-15T03:50:49.619Z,91.62
2022-12-15T03:51:55.640Z,92.18
2022-12-15T03:53:03.217Z,94.95
2022-12-15T03:54:10.370Z,94.34
2022-12-15T03:55:14.394Z,91.06
2022-12-15T03:56:21.417Z,93.23
2022-12-15T03:57:24.822Z,95.84
2022-12-15T03:58:30.711Z,99.05
2022-12-15T03:59:33.923Z,96.88
2022-12-15T04:00:40.731Z,97.30
2022-12-15T04:01:49.506Z,102.35
2022-12-15T04:02:56.328Z,103.98
2022-12-15T04:04:04.647Z,107.20
2022-12-15T04:05:16.784Z,107.57
2022-12-15T04:06:21.015Z,97.00
2022-12-15T04:07:27.012Z,100.66
2022-12-15T04:08:30.319Z,105.53
2022-12-15T04:09:36.274Z,114.34
2022-12-15T04:10:39.686Z,117.59
2022-12-15T04:11:46.433Z,114.74
2022-12-15T04:12:49.996Z,114.24
2022-12-15T04:13:55.950Z,113.99
2022-12-15T04:14:59.280Z,109.23
2022-12-15T04:16:05.731Z,107.65
2022-12-15T04:17:10.324Z,107.03
2022-12-15T04:18:16.518Z,106.14
2022-12-15T04:19:37.622Z,105.47
2022-12-15T04:20:41.681Z,107.01
2022-12-15T04:21:47.696Z,97.75
2022-12-15T04:22:52.859Z,93.08
2022-12-15T04:24:11.344Z,96.12
2022-12-15T04:25:33.532Z,97.01
2022-12-15T04:26:52.011Z,92.98
2022-12-15T04:28:11.831Z,88.06
2022-12-15T04:29:30.263Z,92.35
2022-12-15T04:30:48.945Z,94.58
2022-12-15T04:32:07.309Z,96.57
2022-12-15T04:33:30.746Z,94.07
2022-12-15T04:34:52.127Z,92.91
2022-12-15T04:36:10.784Z,91.85
2022-12-15T04:37:30.256Z,90.90
2022-12-15T04:38:50.822Z,95.02
2022-12-15T04:40:11.760Z,94.95
2022-12-15T04:41:33.052Z,95.20
2022-12-15T04:42:57.278Z,94.94
2022-12-15T04:44:16.592Z,91.08
2022-12-15T04:45:40.523Z,87.68
2022-12-15T04:46:58.817Z,92.60
2022-12-15T04:48:17.101Z,94.04
2022-12-15T04:49:36.203Z,96.17
2022-12-15T04:50:57.255Z,94.97
2022-12-15T04:52:15.479Z,96.99
2022-12-15T04:53:35.358Z,97.16
2022-12-15T04:54:54.414Z,88.71
2022-12-15T04:56:18.247Z,87.12
2022-12-15T04:57:37.186Z,88.85
2022-12-15T04:58:56.416Z,91.26
2022-12-15T05:00:16.268Z,101.76
2022-12-15T05:01:34.645Z,101.62
2022-12-15T05:02:53.283Z,95.84
2022-12-15T05:04:11.965Z,91.77
2022-12-15T05:05:31.204Z,81.45
2022-12-15T05:06:52.278Z,81.13
2022-12-15T05:08:13.616Z,79.22
2022-12-15T05:09:32.024Z,78.95
2022-12-15T05:10:51.139Z,80.67
2022-12-15T05:12:09.482Z,77.60
2022-12-15T05:13:27.904Z,75.92
2022-12-15T05:14:46.372Z,78.45
2022-12-15T05:16:09.238Z,77.19
2022-12-15T05:17:27.819Z,75.18
2022-12-15T05:18:46.087Z,76.59
2022-12-15T05:20:04.448Z,72.47
2022-12-15T05:21:24.220Z,71.23
2022-12-15T05:22:45.158Z,69.67
2022-12-15T05:24:03.406Z,69.36
2022-12-15T05:25:23.006Z,69.69
2022-12-15T05:26:45.578Z,68.32
2022-12-15T05:28:10.600Z,67.76
2022-12-15T05:29:28.863Z,67.28
2022-12-15T05:30:47.303Z,65.79
2022-12-15T05:31:55.648Z,66.53
2022-12-15T05:32:58.895Z,66.54
2022-12-15T05:34:05.962Z,62.52
2022-12-15T05:35:09.680Z,60.05
2022-12-15T05:36:15.883Z,58.64
2022-12-15T05:37:20.102Z,60.21
2022-12-15T05:38:28.596Z,61.40
2022-12-15T05:39:34.577Z,60.92
2022-12-15T05:40:38.068Z,61.94
2022-12-15T05:41:44.529Z,60.48
2022-12-15T05:42:49.955Z,58.78
2022-12-15T05:43:56.482Z,61.04
2022-12-15T05:44:59.994Z,63.23
2022-12-15T05:46:07.456Z,62.61
2022-12-15T05:47:15.266Z,63.61
2022-12-15T05:48:19.381Z,62.02
2022-12-15T05:49:26.007Z,61.69
2022-12-15T05:50:29.412Z,58.70
2022-12-15T05:51:35.368Z,60.09
2022-12-15T05:52:38.604Z,60.62
2022-12-15T05:53:47.964Z,59.04
2022-12-15T05:54:51.867Z,56.21
2022-12-15T05:56:05.397Z,55.25
2022-12-15T05:57:09.578Z,58.29
2022-12-15T05:58:15.466Z,55.15
2022-12-15T05:59:20.112Z,56.10
2022-12-15T06:00:26.865Z,59.05
2022-12-15T06:01:35.425Z,60.46
2022-12-15T06:02:38.960Z,62.16
2022-12-15T06:03:46.013Z,64.29
2022-12-15T06:04:50.115Z,62.38
2022-12-15T06:05:56.734Z,61.06
2022-12-15T06:07:00.163Z,61.63
2022-12-15T06:08:05.955Z,63.01
2022-12-15T06:09:12.258Z,65.71
2022-12-15T06:10:19.256Z,66.07
2022-12-15T06:11:23.496Z,69.71
2022-12-15T06:12:29.379Z,77.14
2022-12-15T06:13:35.275Z,79.65
2022-12-15T06:14:41.534Z,80.50
2022-12-15T06:15:57.226Z,74.66
2022-12-15T06:17:03.729Z,72.91
2022-12-15T06:18:07.045Z,81.18
2022-12-15T06:19:12.938Z,84.86
2022-12-15T06:20:16.539Z,89.22
2022-12-15T06:21:26.978Z,88.93
2022-12-15T06:22:31.439Z,90.74
2022-12-15T06:23:39.925Z,93.98
2022-12-15T06:24:48.487Z,91.14
2022-12-15T06:25:51.818Z,90.17
2022-12-15T06:26:59.522Z,84.69
2022-12-15T06:28:02.800Z,84.01
2022-12-15T06:29:13.447Z,78.20
2022-12-15T06:30:17.005Z,82.09
2022-12-15T06:31:25.800Z,83.50
2022-12-15T06:32:30.133Z,81.43
2022-12-15T06:33:36.773Z,84.38
2022-12-15T06:34:42.632Z,87.98
2022-12-15T06:35:46.005Z,95.98
2022-12-15T06:36:51.847Z,91.17
2022-12-15T06:37:55.913Z,88.44
2022-12-15T06:39:05.466Z,88.04
2022-12-15T06:40:15.171Z,85.11
2022-12-15T06:41:21.706Z,84.22
2022-12-15T06:42:27.524Z,79.36
2022-12-15T06:43:34.018Z,81.69
2022-12-15T06:44:40.233Z,80.08
2022-12-15T06:45:49.930Z,74.54
2022-12-15T06:46:56.020Z,75.39
2022-12-15T06:48:01.440Z,76.42
2022-12-15T06:49:09.261Z,79.79
2022-12-15T06:50:15.164Z,79.80
2022-12-15T06:51:18.682Z,79.23
2022-12-15T06:52:24.624Z,84.02
2022-12-15T06:53:28.144Z,81.35
2022-12-15T06:54:35.072Z,79.79
2022-12-15T06:55:42.437Z,80.28
2022-12-15T06:56:49.848Z,81.06
2022-12-15T06:57:53.430Z,80.29
2022-12-15T06:58:59.537Z,81.05
2022-12-15T07:00:05.783Z,78.48
2022-12-15T07:01:12.096Z,78.92
2022-12-15T07:02:21.117Z,82.40
2022-12-15T07:03:31.083Z,84.43
2022-12-15T07:04:35.043Z,82.90
2022-12-15T07:05:41.819Z,85.70
2022-12-15T07:06:48.013Z,83.90
2022-12-15T07:07:55.699Z,82.42
2022-12-15T07:08:59.230Z,78.74
2022-12-15T07:10:05.130Z,81.05
2022-12-15T07:11:16.188Z,84.69
2022-12-15T07:12:19.572Z,81.66
2022-12-15T07:13:26.450Z,81.77
2022-12-15T07:14:32.529Z,82.37
2022-12-15T07:15:39.259Z,85.30
2022-12-15T07:16:46.596Z,86.75
2022-12-15T07:17:51.365Z,86.65
2022-12-15T07:18:57.488Z,85.30
2022-12-15T07:20:03.500Z,85.13
2022-12-15T07:21:10.216Z,87.83
2022-12-15T07:22:16.942Z,85.67
2022-12-15T07:23:29.600Z,86.15
2022-12-15T07:24:46.632Z,91.38
2022-12-15T07:25:49.970Z,92.99
2022-12-15T07:26:59.248Z,88.93
2022-12-15T07:28:03.845Z,88.48
2022-12-15T07:29:09.801Z,87.75
2022-12-15T07:30:15.691Z,87.56
2022-12-15T07:31:21.848Z,86.53
2022-12-15T07:32:27.884Z,87.65
2022-12-15T07:33:34.039Z,84.45
2022-12-15T07:34:40.194Z,83.83
2022-12-15T07:35:44.528Z,84.24
2022-12-15T07:36:52.679Z,84.71
2022-12-15T07:37:56.752Z,89.06
2022-12-15T07:39:08.396Z,92.35
2022-12-15T07:40:12.868Z,95.52
2022-12-15T07:41:19.300Z,104.65
2022-12-15T07:42:28.434Z,94.01
2022-12-15T07:43:33.364Z,87.37
2022-12-15T07:44:41.280Z,87.49
2022-12-15T07:45:51.156Z,89.18
2022-12-15T07:46:57.562Z,89.46
2022-12-15T07:48:03.488Z,86.81
2022-12-15T07:49:09.917Z,86.84
2022-12-15T07:50:14.288Z,89.68
2022-12-15T07:51:21.052Z,92.42
2022-12-15T07:52:24.988Z,95.22
2022-12-15T07:53:31.643Z,94.47
2022-12-15T07:54:37.913Z,98.71
2022-12-15T07:56:05.463Z,95.56
2022-12-15T07:57:08.211Z,95.74
2022-12-15T07:58:14.165Z,97.66
2022-12-15T07:59:20.070Z,96.78
2022-12-15T08:00:23.825Z,98.31
2022-12-15T08:01:31.319Z,97.51
2022-12-15T08:02:35.118Z,108.88
2022-12-15T08:03:42.835Z,131.14
2022-12-15T08:04:49.208Z,149.13
2022-12-15T08:06:00.289Z,157.01
2022-12-15T08:07:12.490Z,204.53
2022-12-15T08:08:18.802Z,208.73
2022-12-15T08:09:25.290Z,200.18
2022-12-15T08:10:31.271Z,199.62
2022-12-15T08:11:37.527Z,176.65
2022-12-15T08:12:44.334Z,146.03
2022-12-15T08:14:03.234Z,139.56
2022-12-15T08:15:13.172Z,209.23
2022-12-15T08:16:16.673Z,254.84
2022-12-15T08:17:26.063Z,182.60
2022-12-15T08:18:30.313Z,148.99
2022-12-15T08:19:37.003Z,163.84
2022-12-15T08:20:42.932Z,192.31
2022-12-15T08:21:50.280Z,183.88
2022-12-15T08:22:53.644Z,212.07
2022-12-15T08:24:01.038Z,273.99
2022-12-15T08:25:08.041Z,269.79
2022-12-15T08:26:17.892Z,231.30
2022-12-15T08:27:24.538Z,230.13
2022-12-15T08:28:27.893Z,206.97
2022-12-15T08:29:54.850Z,175.71
2022-12-15T08:31:07.080Z,198.48
2022-12-15T08:32:14.645Z,270.88
2022-12-15T08:33:17.962Z,218.12
2022-12-15T08:34:24.284Z,172.18
2022-12-15T08:35:55.720Z,192.80
2022-12-15T08:36:58.626Z,135.72
2022-12-15T08:38:05.596Z,121.83
2022-12-15T08:39:11.945Z,92.03
2022-12-15T08:40:18.337Z,107.00
2022-12-15T08:41:27.286Z,105.41
2022-12-15T08:42:37.098Z,111.53
2022-12-15T08:43:48.620Z,117.25
2022-12-15T08:44:57.870Z,115.98
2022-12-15T08:46:01.490Z,103.34
2022-12-15T08:47:08.414Z,95.57
2022-12-15T08:48:11.698Z,86.97
2022-12-15T08:49:21.838Z,83.17
2022-12-15T08:50:28.467Z,82.43
2022-12-15T08:51:34.133Z,83.26
2022-12-15T08:52:55.254Z,82.52
2022-12-15T08:54:08.634Z,83.05
2022-12-15T08:55:19.309Z,80.24
2022-12-15T08:56:30.546Z,82.32
2022-12-15T08:57:36.569Z,80.72
2022-12-15T08:58:41.026Z,84.33
2022-12-15T08:59:46.944Z,97.59
2022-12-15T09:00:55.730Z,112.69
2022-12-15T09:02:00.750Z,118.42
2022-12-15T09:03:06.875Z,85.58
2022-12-15T09:04:13.761Z,81.00
2022-12-15T09:05:20.478Z,80.72
2022-12-15T09:06:28.211Z,82.70
2022-12-15T09:07:34.729Z,79.87
2022-12-15T09:08:38.156Z,83.77
2022-12-15T09:09:46.286Z,85.04
2022-12-15T09:10:52.577Z,86.75
2022-12-15T09:11:58.812Z,85.63
2022-12-15T09:13:02.111Z,88.98
2022-12-15T09:14:09.575Z,90.50
2022-12-15T09:15:16.590Z,98.34
2022-12-15T09:16:24.399Z,124.18
2022-12-15T09:17:31.335Z,134.34
2022-12-15T09:18:35.714Z,124.24
2022-12-15T09:19:41.599Z,107.01
2022-12-15T09:20:45.976Z,113.41
2022-12-15T09:21:51.994Z,116.88
2022-12-15T09:22:57.883Z,97.22
2022-12-15T09:24:06.669Z,88.26
2022-12-15T09:25:13.584Z,78.90
2022-12-15T09:26:18.717Z,81.98
2022-12-15T09:27:24.721Z,86.84
2022-12-15T09:28:29.617Z,88.03
2022-12-15T09:29:36.018Z,89.11
2022-12-15T09:30:42.480Z,92.51
2022-12-15T09:31:51.837Z,90.58
2022-12-15T09:32:57.857Z,89.80
2022-12-15T09:34:02.639Z,87.82
2022-12-15T09:35:10.135Z,83.51
2022-12-15T09:36:13.666Z,104.99
2022-12-15T09:37:20.636Z,105.39
2022-12-15T09:38:23.988Z,99.82
2022-12-15T09:39:30.267Z,100.32
2022-12-15T09:40:33.798Z,109.46
2022-12-15T09:41:40.031Z,94.73
2022-12-15T09:43:25.652Z,85.74
2022-12-15T09:44:28.642Z,87.36
2022-12-15T09:45:47.905Z,91.29
2022-12-15T09:47:16.206Z,88.78
2022-12-15T09:48:28.052Z,84.68
2022-12-15T09:49:57.541Z,85.58
2022-12-15T09:51:11.643Z,91.32
2022-12-15T09:52:19.882Z,97.66
2022-12-15T09:53:54.315Z,99.22
2022-12-15T09:54:56.467Z,87.67
2022-12-15T09:56:14.710Z,88.34
2022-12-15T09:57:34.786Z,86.30
2022-12-15T09:58:59.558Z,82.82
2022-12-15T10:00:26.601Z,79.95
2022-12-15T10:01:49.718Z,73.18
2022-12-15T10:03:36.581Z,75.75
2022-12-15T10:05:00.230Z,75.06
2022-12-15T10:06:18.261Z,78.49
2022-12-15T10:07:41.195Z,77.57
2022-12-15T10:08:52.365Z,80.22
2022-12-15T10:09:56.888Z,88.65
2022-12-15T10:11:07.434Z,83.03
2022-12-15T10:12:25.559Z,80.07
2022-12-15T10:13:45.832Z,82.77
2022-12-15T10:15:19.874Z,88.94
2022-12-15T10:16:45.060Z,86.65
2022-12-15T10:18:08.080Z,86.59
2022-12-15T10:19:29.873Z,88.69
2022-12-15T10:20:36.712Z,91.17
2022-12-15T10:21:44.677Z,84.00
2022-12-15T10:23:02.525Z,88.55
2022-12-15T10:24:44.413Z,95.18
2022-12-15T10:25:53.420Z,99.39
2022-12-15T10:27:20.463Z,97.36
2022-12-15T10:28:59.023Z,89.32
2022-12-15T10:30:09.169Z,87.84
2022-12-15T10:31:27.092Z,84.56
2022-12-15T10:32:51.106Z,88.97
2022-12-15T10:34:12.238Z,87.27
2022-12-15T10:35:27.873Z,90.92
2022-12-15T10:36:31.891Z,90.91
2022-12-15T10:37:39.252Z,91.01
2022-12-15T10:38:50.223Z,94.83
2022-12-15T10:39:56.711Z,102.35
2022-12-15T10:41:09.492Z,84.12
2022-12-15T10:42:18.821Z,77.14
2022-12-15T10:43:32.622Z,75.50
2022-12-15T10:44:40.559Z,76.05
2022-12-15T10:45:47.006Z,74.69
2022-12-15T10:46:58.770Z,73.06
2022-12-15T10:48:07.095Z,72.18
2022-12-15T10:49:28.081Z,74.13
2022-12-15T10:50:38.436Z,74.11
2022-12-15T10:51:57.798Z,72.98
2022-12-15T10:53:11.322Z,73.55
2022-12-15T10:54:21.276Z,75.58
2022-12-15T10:55:42.659Z,75.05
2022-12-15T10:56:56.008Z,76.07
2022-12-15T10:58:02.676Z,76.46
2022-12-15T10:59:28.893Z,81.23
2022-12-15T11:00:37.428Z,80.05
2022-12-15T11:01:43.524Z,80.22
2022-12-15T11:02:49.716Z,80.77
2022-12-15T11:03:57.082Z,80.33
2022-12-15T11:05:07.195Z,90.39
2022-12-15T11:06:23.593Z,88.34
2022-12-15T11:07:42.954Z,90.17
2022-12-15T11:08:50.647Z,84.63
2022-12-15T11:10:03.958Z,84.22
2022-12-15T11:11:45.125Z,81.41
2022-12-15T11:13:16.468Z,77.74
2022-12-15T11:14:24.415Z,78.97
2022-12-15T11:15:51.458Z,81.12
2022-12-15T11:17:01.350Z,81.27
2022-12-15T11:18:30.962Z,82.81
2022-12-15T11:19:58.100Z,84.38
2022-12-15T11:21:15.809Z,85.99
2022-12-15T11:22:41.309Z,88.52
2022-12-15T11:24:16.184Z,89.36
2022-12-15T11:25:34.682Z,90.90
2022-12-15T11:26:55.501Z,87.28
2022-12-15T11:28:09.919Z,89.05
2022-12-15T11:29:34.734Z,91.36
2022-12-15T11:30:52.345Z,91.97
2022-12-15T11:32:06.464Z,92.17
2022-12-15T11:33:13.640Z,96.49
2022-12-15T11:34:27.571Z,98.00
2022-12-15T11:35:59.181Z,98.68
2022-12-15T11:37:44.527Z,98.88
2022-12-15T11:39:01.944Z,95.21
2022-12-15T11:40:37.965Z,99.30
2022-12-15T11:42:00.367Z,99.39
2022-12-15T11:43:38.183Z,100.58
2022-12-15T11:45:01.286Z,100.67
2022-12-15T11:46:27.359Z,96.10
2022-12-15T11:47:46.806Z,95.27
2022-12-15T11:49:25.840Z,92.27
2022-12-15T11:50:44.266Z,92.62
2022-12-15T11:52:04.824Z,91.82
2022-12-15T11:53:49.394Z,92.25
2022-12-15T11:55:08.276Z,93.26
2022-12-15T11:56:31.333Z,92.43
2022-12-15T11:58:12.032Z,92.10
2022-12-15T11:59:46.849Z,92.31
2022-12-15T12:01:12.930Z,96.07
2022-12-15T12:02:52.989Z,90.93
2022-12-15T12:04:21.027Z,91.06
2022-12-15T12:06:03.218Z,94.24
2022-12-15T12:07:27.341Z,93.58
2022-12-15T12:09:15.959Z,101.97
2022-12-15T12:10:42.921Z,99.04
2022-12-15T12:12:02.122Z,99.47
2022-12-15T12:13:27.052Z,98.24
2022-12-15T12:14:54.288Z,99.75
2022-12-15T12:16:23.576Z,96.04
2022-12-15T12:17:45.598Z,96.68
2022-12-15T12:19:05.861Z,100.60
2022-12-15T12:20:25.802Z,97.94
2022-12-15T12:21:41.646Z,94.84
2022-12-15T12:23:05.344Z,92.49
2022-12-15T12:24:27.991Z,88.19
2022-12-15T12:25:48.702Z,87.23
2022-12-15T12:27:05.646Z,90.93
2022-12-15T12:28:26.021Z,86.32
2022-12-15T12:29:40.155Z,88.94
2022-12-15T12:30:50.672Z,87.28
2022-12-15T12:32:14.505Z,90.34
2022-12-15T12:33:36.912Z,90.93
2022-12-15T12:35:30.691Z,90.13
2022-12-15T12:36:31.654Z,88.72
2022-12-15T12:37:46.989Z,88.35
2022-12-15T12:39:01.559Z,89.56
2022-12-15T12:40:25.482Z,85.37
2022-12-15T12:41:46.967Z,87.23
2022-12-15T12:42:59.301Z,87.92
2022-12-15T12:44:22.479Z,87.45
2022-12-15T12:45:40.791Z,85.66
2022-12-15T12:46:53.507Z,84.87
2022-12-15T12:48:12.985Z,89.32
2022-12-15T12:49:31.599Z,91.11
2022-12-15T12:50:38.310Z,99.89
2022-12-15T12:51:51.971Z,102.86
2022-12-15T12:53:04.057Z,103.93
2022-12-15T12:54:47.234Z,105.46
2022-12-15T12:55:59.107Z,101.20
2022-12-15T12:57:25.971Z,99.10
2022-12-15T12:58:41.615Z,101.97
2022-12-15T13:00:00.576Z,99.50
2022-12-15T13:01:28.713Z,101.13
2022-12-15T13:03:22.502Z,105.66
2022-12-15T13:04:46.207Z,107.86
2022-12-15T13:05:55.063Z,100.24
2022-12-15T13:07:07.771Z,100.82
2022-12-15T13:08:56.040Z,102.04
2022-12-15T13:10:21.228Z,102.47
2022-12-15T13:12:20.701Z,95.56
2022-12-15T13:13:53.086Z,95.59
2022-12-15T13:15:02.099Z,95.64
2022-12-15T13:16:21.729Z,95.75
2022-12-15T13:17:35.662Z,95.53
2022-12-15T13:19:08.717Z,100.17
2022-12-15T13:20:34.578Z,97.61
2022-12-15T13:21:58.999Z,96.36
2022-12-15T13:23:44.158Z,100.13
2022-12-15T13:24:54.960Z,104.40
2022-12-15T13:26:18.032Z,102.22
2022-12-15T13:27:26.867Z,101.68
2022-12-15T13:28:48.265Z,101.93
2022-12-15T13:30:04.852Z,103.00
2022-12-15T13:31:42.137Z,101.36
2022-12-15T13:32:54.779Z,93.12
2022-12-15T13:34:29.333Z,91.22
2022-12-15T13:35:36.097Z,95.78
2022-12-15T13:36:57.913Z,98.28
2022-12-15T13:38:07.724Z,96.77
2022-12-15T13:39:56.289Z,96.61
2022-12-15T13:41:02.517Z,100.34
2022-12-15T13:42:56.257Z,110.28
2022-12-15T13:44:02.109Z,118.83
2022-12-15T13:45:50.696Z,120.81
2022-12-15T13:46:59.153Z,119.73
2022-12-15T13:48:18.766Z,120.68
2022-12-15T13:49:37.634Z,119.97
2022-12-15T13:50:58.580Z,122.26
2022-12-15T13:52:17.210Z,122.43
2022-12-15T13:53:28.100Z,126.99
2022-12-15T13:54:43.326Z,123.81
2022-12-15T13:56:07.239Z,118.26
2022-12-15T13:57:19.280Z,100.01
2022-12-15T13:58:28.880Z,94.88
2022-12-15T13:59:49.380Z,101.42
2022-12-15T14:01:00.072Z,106.63
2022-12-15T14:02:06.199Z,106.36
2022-12-15T14:03:12.961Z,117.03
2022-12-15T14:04:19.153Z,120.14
2022-12-15T14:05:27.281Z,107.57
2022-12-15T14:06:40.396Z,102.79
2022-12-15T14:07:54.823Z,98.21
2022-12-15T14:09:01.299Z,100.67
2022-12-15T14:10:19.292Z,97.82
2022-12-15T14:11:52.853Z,95.35
2022-12-15T14:13:15.858Z,100.02
2022-12-15T14:14:30.416Z,99.53
2022-12-15T14:15:38.920Z,102.78
2022-12-15T14:16:47.046Z,114.81
2022-12-15T14:18:00.797Z,110.44
2022-12-15T14:19:19.106Z,100.86
2022-12-15T14:20:29.222Z,99.42
2022-12-15T14:21:32.564Z,90.19
2022-12-15T14:22:38.522Z,86.84
2022-12-15T14:24:19.046Z,88.57
2022-12-15T14:25:23.981Z,90.99
2022-12-15T14:26:32.618Z,97.64
2022-12-15T14:27:38.950Z,98.57
2022-12-15T14:28:50.529Z,96.58
2022-12-15T14:30:23.287Z,93.10
2022-12-15T14:31:31.102Z,91.16
2022-12-15T14:32:38.575Z,93.97
2022-12-15T14:33:50.492Z,92.46
2022-12-15T14:34:57.172Z,93.81
2022-12-15T14:36:08.615Z,94.98
2022-12-15T14:37:23.614Z,90.51
2022-12-15T14:38:40.735Z,81.26
2022-12-15T14:39:51.789Z,84.00
2022-12-15T14:41:05.089Z,84.75
2022-12-15T14:42:21.659Z,82.53
2022-12-15T14:43:36.292Z,86.40
2022-12-15T14:44:50.699Z,88.13
2022-12-15T14:46:13.333Z,85.83
2022-12-15T14:47:27.757Z,82.05
2022-12-15T14:48:42.282Z,79.36
2022-12-15T14:49:51.308Z,83.06
2022-12-15T14:51:00.491Z,86.97
2022-12-15T14:52:26.355Z,95.69
2022-12-15T14:53:39.403Z,104.73
2022-12-15T14:54:57.798Z,93.31
2022-12-15T14:56:30.367Z,97.05
2022-12-15T14:57:58.143Z,91.75
2022-12-15T14:59:07.606Z,98.63
2022-12-15T15:00:29.888Z,112.37
2022-12-15T15:01:59.166Z,109.58
2022-12-15T15:03:29.339Z,109.95
2022-12-15T15:04:37.181Z,128.22
2022-12-15T15:05:46.848Z,126.14
2022-12-15T15:06:59.880Z,126.99
2022-12-15T15:08:04.542Z,123.98
2022-12-15T15:09:27.803Z,119.58
2022-12-15T15:10:34.324Z,100.07
2022-12-15T15:11:45.940Z,92.16
2022-12-15T15:12:53.208Z,92.12
2022-12-15T15:14:03.072Z,93.59
2022-12-15T15:15:19.089Z,114.55
2022-12-15T15:16:22.695Z,107.21
2022-12-15T15:17:41.831Z,100.17
2022-12-15T15:18:54.402Z,91.60
2022-12-15T15:20:06.066Z,91.51
2022-12-15T15:21:24.861Z,90.13
2022-12-15T15:22:41.322Z,94.48
2022-12-15T15:24:02.054Z,100.74
2022-12-15T15:25:36.174Z,108.84
2022-12-15T15:26:46.187Z,111.53
2022-12-15T15:27:50.957Z,115.00
2022-12-15T15:28:57.744Z,114.77
2022-12-15T15:30:22.638Z,119.17
2022-12-15T15:31:41.680Z,110.27
2022-12-15T15:33:02.551Z,100.63
2022-12-15T15:34:09.386Z,98.77
2022-12-15T15:35:13.792Z,98.85
2022-12-15T15:36:19.954Z,92.42
2022-12-15T15:37:29.617Z,94.97
2022-12-15T15:38:41.149Z,95.71
2022-12-15T15:39:50.337Z,95.49
2022-12-15T15:41:01.176Z,95.04
2022-12-15T15:42:15.434Z,104.87
2022-12-15T15:43:22.206Z,108.08
2022-12-15T15:44:28.352Z,109.11